Catacamas Airport


Codes: MHCA/CAA
Name: Catacamas Airport
City: Catacamas
Country: Honduras
Elevation: 1489 ft.

Photos at Catacamas Airport


   Photos courtesy of SpottingLog. You can add your own sightings and photos by signing up for a free trial today.



No photos found.

Weather at Catacamas Airport


Time (UTC)DescriptionTempratureWindCloud coverageVisibilityPressureHumidity
23-May-2024 21:00Scattered Clouds34°C2 mph, SE31%10000m1012hPa39%
24-May-2024 00:00Broken Clouds29°C4 mph, NE51%10000m1011hPa44%
24-May-2024 03:00Light Rain19°C4 mph, E57%10000m1014hPa87%
24-May-2024 06:00Light Rain19°C4 mph, E40%10000m1014hPa91%
24-May-2024 09:00Light Rain18°C2 mph, SE22%10000m1012hPa92%
24-May-2024 12:00Few Clouds19°C2 mph, SE12%10000m1014hPa90%
24-May-2024 15:00Clear Sky27°C4 mph, SE2%10000m1013hPa54%
24-May-2024 18:00Few Clouds30°C4 mph, SE24%10000m1011hPa40%
24-May-2024 21:00Overcast Clouds26°C2 mph, SE92%10000m1009hPa51%
25-May-2024 00:00Broken Clouds24°C4 mph, NE80%10000m1010hPa58%
25-May-2024 03:00Broken Clouds23°C4 mph, E72%10000m1012hPa61%
25-May-2024 06:00Light Rain20°C4 mph, E64%10000m1013hPa87%
25-May-2024 09:00Scattered Clouds18°C2 mph, E31%10000m1012hPa96%
25-May-2024 12:00Scattered Clouds19°C2 mph, SE42%10000m1013hPa90%
25-May-2024 15:00Clear Sky28°C4 mph, SE5%10000m1013hPa50%
25-May-2024 18:00Few Clouds33°C4 mph, SE13%10000m1010hPa31%
25-May-2024 21:00Scattered Clouds34°C4 mph, SE46%10000m1007hPa24%
26-May-2024 00:00Broken Clouds27°C4 mph, E67%10000m1009hPa44%
26-May-2024 03:00Light Rain23°C4 mph, E76%10000m1013hPa64%
26-May-2024 06:00Light Rain20°C4 mph, E61%10000m1014hPa83%
26-May-2024 09:00Few Clouds18°C2 mph, E15%10000m1013hPa93%
26-May-2024 12:00Few Clouds19°C2 mph, SE12%10000m1014hPa90%
26-May-2024 15:00Few Clouds27°C4 mph, SE17%10000m1014hPa53%
26-May-2024 18:00Scattered Clouds30°C4 mph, SE38%10000m1011hPa38%
26-May-2024 21:00Broken Clouds33°C4 mph, E56%10000m1008hPa28%
27-May-2024 00:00Broken Clouds27°C7 mph, E57%10000m1010hPa37%
27-May-2024 03:00Broken Clouds21°C4 mph, E52%10000m1014hPa60%
27-May-2024 06:00Light Rain19°C4 mph, E33%10000m1015hPa87%
27-May-2024 09:00Clear Sky18°C2 mph, E1%10000m1014hPa94%
27-May-2024 12:00Clear Sky19°C2 mph, SE1%10000m1015hPa89%
27-May-2024 15:00Clear Sky27°C4 mph, SE2%10000m1015hPa48%
27-May-2024 18:00Clear Sky32°C7 mph, SE1%10000m1012hPa31%
27-May-2024 21:00Broken Clouds29°C9 mph, SE53%10000m1010hPa40%
28-May-2024 00:00Light Rain25°C2 mph, E39%10000m1012hPa55%
28-May-2024 03:00Light Rain23°C4 mph, E83%10000m1015hPa62%
28-May-2024 06:00Scattered Clouds19°C4 mph, E44%10000m1016hPa80%
28-May-2024 09:00Clear Sky17°C2 mph, SE4%10000m1015hPa93%
28-May-2024 12:00Few Clouds19°C2 mph, SE18%10000m1016hPa86%
28-May-2024 15:00Scattered Clouds26°C4 mph, SE33%10000m1016hPa51%
28-May-2024 18:00Few Clouds32°C4 mph, SE16%10000m1013hPa29%